Time;durP1;ratioP1;P1;durP2;ratioP2;P2;SDS_P1;SDS_P2;PMS_P1;PMS_P2;Temp;Humidity;BMP_temperature;BMP_pressure;BME280_temperature;BME280_humidity;BME280_pressure;Samples;Min_cycle;Max_cycle;Signal;HPM_P1;HPM_P2
2022/05/02 00:04:29;;;;;;;34.40;22.30;;;;;;;11.06;55.14;98865.67;220428;1275;362142;-72
2022/05/02 00:09:32;;;;;;;40.40;25.30;;;;;;;11.01;55.27;98867.02;220838;1273;25345;-72
2022/05/02 00:14:34;;;;;;;36.40;23.50;;;;;;;10.99;54.95;98867.65;221325;1274;24218;-72
2022/05/02 00:19:37;;;;;;;40.00;24.10;;;;;;;10.97;55.05;98863.48;221089;1274;26588;-72
2022/05/02 00:24:39;;;;;;;34.60;23.10;;;;;;;10.95;55.23;98861.09;221041;1274;22724;-72
2022/05/02 00:29:41;;;;;;;38.30;23.80;;;;;;;10.93;55.37;98856.36;220989;1274;23030;-71
2022/05/02 00:34:43;;;;;;;35.00;22.00;;;;;;;10.95;55.23;98855.79;221247;1274;22561;-71
2022/05/02 00:39:46;;;;;;;32.70;22.80;;;;;;;10.99;55.14;98855.74;221449;1274;25340;-72
2022/05/02 00:44:48;;;;;;;33.70;22.70;;;;;;;11.01;55.67;98856.61;221167;1277;23100;-72
2022/05/02 00:50:07;;;;;;;35.80;23.40;;;;;;;11.02;56.53;98858.45;221116;1273;26525;-71
2022/05/02 00:55:15;;;;;;;32.30;22.70;;;;;;;10.99;56.17;98859.39;221250;1274;25389;-71
2022/05/02 01:00:17;;;;;;;31.60;21.70;;;;;;;11.00;56.29;98858.42;221171;1274;24897;-72
2022/05/02 01:05:19;;;;;;;30.80;21.80;;;;;;;10.99;56.75;98857.63;221122;1274;26364;-72
2022/05/02 01:10:23;;;;;;;32.40;21.90;;;;;;;10.98;56.80;98858.07;220620;1274;24301;-73
2022/05/02 01:15:27;;;;;;;40.20;26.30;;;;;;;10.94;57.21;98856.88;221010;1274;22564;-71
2022/05/02 01:20:29;;;;;;;36.80;24.40;;;;;;;10.86;57.51;98855.11;220858;1274;22543;-72
2022/05/02 01:25:40;;;;;;;39.20;26.20;;;;;;;10.76;58.03;98851.26;220902;1276;22564;-72
2022/05/02 01:30:43;;;;;;;39.60;26.30;;;;;;;10.65;58.27;98844.86;220928;1274;22574;-72
2022/05/02 01:35:48;;;;;;;41.20;26.50;;;;;;;10.54;58.23;98834.30;220716;1274;22579;-72
2022/05/02 01:40:54;;;;;;;41.70;26.00;;;;;;;10.44;58.37;98829.64;221166;1277;25388;-72
2022/05/02 01:45:56;;;;;;;41.10;26.50;;;;;;;10.36;58.75;98829.39;221555;1274;22563;-71
2022/05/02 01:51:03;;;;;;;40.70;27.20;;;;;;;10.27;58.86;98832.68;221415;1274;25328;-72
2022/05/02 01:56:05;;;;;;;39.90;26.20;;;;;;;10.21;58.88;98829.38;221246;1274;22544;-73
2022/05/02 02:01:08;;;;;;;38.50;25.60;;;;;;;10.11;59.55;98826.16;221288;1274;25377;-72
2022/05/02 02:06:10;;;;;;;36.10;24.90;;;;;;;10.03;60.09;98828.75;221275;1277;22571;-71
2022/05/02 02:11:14;;;;;;;36.10;24.60;;;;;;;9.96;60.47;98834.28;221334;1274;22581;-72
2022/05/02 02:16:25;;;;;;;35.50;24.50;;;;;;;9.89;60.81;98838.69;221058;1274;22680;-71
2022/05/02 02:21:28;;;;;;;36.70;24.30;;;;;;;9.83;60.91;98832.91;221268;1274;23048;-71
2022/05/02 02:26:39;;;;;;;35.00;24.20;;;;;;;9.77;61.07;98827.93;220978;1274;25602;-71
2022/05/02 02:31:43;;;;;;;38.60;25.70;;;;;;;9.69;61.18;98823.23;221171;1276;22535;-72
2022/05/02 02:36:45;;;;;;;37.50;24.70;;;;;;;9.65;61.33;98825.46;221162;1274;22544;-72
2022/05/02 02:41:47;;;;;;;34.60;24.10;;;;;;;9.58;61.72;98822.95;221012;1274;22701;-72
2022/05/02 02:46:50;;;;;;;35.30;24.70;;;;;;;9.51;62.18;98822.54;220840;1274;24414;-72
2022/05/02 02:51:52;;;;;;;35.40;25.10;;;;;;;9.41;62.29;98824.64;220843;1274;24154;-72
2022/05/02 02:57:09;;;;;;;37.40;25.60;;;;;;;9.28;62.24;98827.25;220873;1274;24778;-72
2022/05/02 03:02:11;;;;;;;36.70;24.30;;;;;;;9.17;62.17;98820.59;220924;1275;22687;-71
2022/05/02 03:07:17;;;;;;;34.50;24.90;;;;;;;9.10;62.76;98826.36;220992;1274;22633;-71
2022/05/02 03:12:35;;;;;;;40.70;25.80;;;;;;;9.00;63.58;98827.60;221250;1274;22582;-72
2022/05/02 03:17:43;;;;;;;41.50;26.40;;;;;;;8.85;64.18;98831.30;221006;1274;24268;-72
2022/05/02 03:22:50;;;;;;;37.60;25.80;;;;;;;8.69;64.47;98822.42;221030;1274;22700;-71
2022/05/02 03:27:52;;;;;;;41.20;26.30;;;;;;;8.57;64.55;98819.36;220969;1274;23931;-71
2022/05/02 03:32:54;;;;;;;39.30;27.00;;;;;;;8.50;64.99;98822.76;220924;1274;22654;-72
2022/05/02 03:37:57;;;;;;;43.60;28.00;;;;;;;8.44;65.03;98821.69;220977;1277;22644;-71
2022/05/02 03:42:59;;;;;;;46.00;29.30;;;;;;;8.43;65.32;98825.31;221194;1274;24144;-71
2022/05/02 03:48:05;;;;;;;42.80;29.00;;;;;;;8.43;65.26;98823.50;221074;1274;22556;-72
2022/05/02 03:53:08;;;;;;;41.50;27.20;;;;;;;8.45;65.50;98823.84;221055;1274;22563;-72
2022/05/02 03:58:10;;;;;;;39.70;26.80;;;;;;;8.47;65.58;98826.66;220999;1274;22542;-71
2022/05/02 04:03:13;;;;;;;47.00;28.30;;;;;;;8.49;65.68;98823.77;221115;1274;22688;-71
2022/05/02 04:08:17;;;;;;;41.80;27.20;;;;;;;8.53;65.80;98822.64;221395;1274;22621;-71
2022/05/02 04:13:20;;;;;;;41.50;26.30;;;;;;;8.56;65.77;98820.86;221076;1277;25234;-72
2022/05/02 04:18:22;;;;;;;45.40;29.30;;;;;;;8.59;65.98;98821.92;220893;1274;23909;-72
2022/05/02 04:23:37;;;;;;;42.90;29.80;;;;;;;8.64;65.99;98827.03;221157;1277;22581;-69
2022/05/02 04:28:49;;;;;;;42.20;28.60;;;;;;;8.73;66.30;98824.59;221041;1277;22564;-71
2022/05/02 04:33:52;;;;;;;44.20;28.70;;;;;;;8.86;66.46;98825.96;220975;1274;25245;-71
2022/05/02 04:38:54;;;;;;;45.30;29.10;;;;;;;9.05;66.54;98827.02;220902;1277;25361;-70
2022/05/02 04:44:02;;;;;;;43.90;29.10;;;;;;;9.31;66.70;98830.48;221711;1277;22578;-70
2022/05/02 04:49:04;;;;;;;48.20;30.40;;;;;;;9.60;66.70;98825.19;221009;1275;22648;-71
2022/05/02 04:54:06;;;;;;;45.30;29.90;;;;;;;9.96;66.54;98823.68;220860;1277;22630;-72
2022/05/02 04:59:09;;;;;;;44.50;30.20;;;;;;;10.35;66.21;98829.08;220991;1277;24356;-70
2022/05/02 05:04:18;;;;;;;46.10;30.20;;;;;;;10.73;65.72;98833.45;221129;1274;22542;-72
2022/05/02 05:09:33;;;;;;;48.60;30.90;;;;;;;11.00;65.05;98839.86;221253;1275;22719;-73
2022/05/02 05:20:50;;;;;;;50.40;32.20;;;;;;;11.42;64.07;98844.30;221145;1274;25344;-71
2022/05/02 05:26:26;;;;;;;55.20;33.10;;;;;;;11.56;63.59;98844.41;220941;1274;26480;-71
2022/05/02 05:31:43;;;;;;;47.40;32.50;;;;;;;11.69;63.10;98844.09;221249;1274;25651;-73
2022/05/02 05:37:30;;;;;;;43.90;29.00;;;;;;;11.89;63.24;98838.33;221449;1274;22713;-71
2022/05/02 05:42:50;;;;;;;46.40;32.00;;;;;;;11.94;63.75;98835.99;220932;1277;22566;-71
2022/05/02 05:48:08;;;;;;;48.00;33.80;;;;;;;12.10;63.24;98831.71;221608;1274;22554;-71
2022/05/02 05:53:32;;;;;;;45.40;30.90;;;;;;;12.32;62.64;98832.42;221315;1274;25007;-71
2022/05/02 05:59:10;;;;;;;42.80;32.10;;;;;;;12.52;61.63;98828.33;222007;1274;22605;-72
2022/05/02 06:04:16;;;;;;;34.10;25.80;;;;;;;12.78;61.43;98830.55;221750;1274;22720;-71
2022/05/02 06:09:20;;;;;;;29.60;23.80;;;;;;;13.02;60.24;98833.40;221869;1274;22953;-72
2022/05/02 06:14:26;;;;;;;31.20;22.50;;;;;;;13.23;59.51;98839.88;221522;1274;23283;-72
2022/05/02 06:19:29;;;;;;;33.40;24.80;;;;;;;13.42;59.17;98840.66;221550;1275;22549;-71
2022/05/02 06:24:36;;;;;;;33.80;25.10;;;;;;;13.61;58.90;98840.69;221421;1274;25257;-71
2022/05/02 06:29:42;;;;;;;30.10;23.60;;;;;;;13.83;58.47;98841.33;221476;1274;22614;-71
2022/05/02 06:34:45;;;;;;;32.70;23.70;;;;;;;14.07;58.08;98842.76;221430;1274;22611;-71
2022/05/02 06:39:55;;;;;;;31.50;24.50;;;;;;;14.31;57.81;98841.39;221290;1275;22541;-72
2022/05/02 06:45:04;;;;;;;;;;;;;;;14.49;57.48;98851.23;221302;1274;22539;-72
2022/05/02 06:50:07;;;;;;;32.70;24.40;;;;;;;14.63;57.16;98850.18;221600;1274;22614;-71
2022/05/02 06:55:17;;;;;;;31.80;25.30;;;;;;;14.78;56.88;98850.41;221341;1274;23195;-72
2022/05/02 07:00:20;;;;;;;31.30;23.80;;;;;;;14.98;56.46;98849.57;222105;1276;22545;-72
2022/05/02 07:05:30;;;;;;;29.40;22.90;;;;;;;15.16;55.88;98848.52;221135;1274;22557;-72
2022/05/02 07:10:34;;;;;;;31.90;22.30;;;;;;;15.36;55.50;98850.89;220898;1278;22617;-71
2022/05/02 07:15:59;;;;;;;28.80;23.80;;;;;;;15.63;54.82;98849.49;222100;1274;22566;-72
2022/05/02 07:21:26;;;;;;;31.60;22.70;;;;;;;15.85;54.11;98849.45;221121;1274;22544;-71
2022/05/02 07:26:32;;;;;;;28.70;20.30;;;;;;;16.11;52.99;98856.47;221305;1274;24677;-71
2022/05/02 07:31:40;;;;;;;28.50;22.00;;;;;;;16.37;52.23;98855.55;221240;1274;22730;-72
2022/05/02 07:36:55;;;;;;;24.80;19.00;;;;;;;16.64;51.62;98854.05;222312;1276;22560;-72
2022/05/02 07:42:04;;;;;;;22.10;16.30;;;;;;;17.02;51.37;98851.80;221182;1274;25429;-72
2022/05/02 07:47:07;;;;;;;23.10;17.90;;;;;;;17.32;50.27;98853.15;221345;1274;25597;-73
2022/05/02 07:52:13;;;;;;;20.50;16.70;;;;;;;17.50;49.91;98858.19;221136;1277;25915;-73
2022/05/02 07:57:18;;;;;;;20.10;16.50;;;;;;;17.58;49.40;98859.95;222010;1273;22564;-73
2022/05/02 08:02:23;;;;;;;17.80;14.20;;;;;;;17.63;48.95;98858.50;221474;1274;22645;-71
2022/05/02 08:07:34;;;;;;;17.70;12.00;;;;;;;17.82;48.23;98856.99;221293;1273;22589;-72
2022/05/02 08:12:47;;;;;;;11.60;8.20;;;;;;;18.03;47.42;98851.83;221728;1274;22554;-72
2022/05/02 08:18:15;;;;;;;8.70;7.60;;;;;;;18.33;46.43;98853.20;222193;1274;22548;-73
2022/05/02 08:29:05;;;;;;;9.20;7.40;;;;;;;19.02;44.14;98848.59;221540;1274;23440;-73
2022/05/02 08:34:24;;;;;;;10.60;7.90;;;;;;;19.26;43.18;98848.13;221543;1275;25414;-73
2022/05/02 08:39:43;;;;;;;10.60;8.40;;;;;;;19.49;42.68;98844.95;224205;1274;23274;-72
2022/05/02 08:45:23;;;;;;;9.90;7.40;;;;;;;19.78;42.41;98842.41;221390;1274;22569;-72
2022/05/02 08:50:34;;;;;;;;;;;;;;;19.94;41.22;98840.49;221273;1274;22690;-73
2022/05/02 08:55:40;;;;;;;8.30;6.60;;;;;;;19.96;40.93;98838.67;221347;1274;26320;-72
2022/05/02 09:01:08;;;;;;;9.00;8.10;;;;;;;20.03;40.45;98828.60;221308;1274;25374;-72
2022/05/02 09:06:42;;;;;;;10.60;7.00;;;;;;;20.17;39.65;98823.77;221069;1273;22570;-72
2022/05/02 09:11:53;;;;;;;8.40;7.10;;;;;;;20.25;39.12;98816.72;221468;1274;22548;-72
2022/05/02 09:17:31;;;;;;;8.60;6.00;;;;;;;20.32;38.60;98812.45;221274;1274;22638;-72
2022/05/02 09:23:23;;;;;;;10.20;7.40;;;;;;;20.49;38.40;98810.67;221179;1273;22587;-71
2022/05/02 09:28:59;;;;;;;8.90;7.50;;;;;;;20.61;37.51;98804.19;221326;1274;24211;-71
2022/05/02 09:34:18;;;;;;;8.00;7.00;;;;;;;20.78;37.60;98806.21;221072;1273;25426;-71
2022/05/02 09:39:26;;;;;;;10.40;8.20;;;;;;;20.98;37.39;98801.11;221027;1274;24492;-72
2022/05/02 09:50:26;;;;;;;12.10;8.30;;;;;;;21.66;36.39;98789.90;221096;1273;22585;-71
2022/05/02 10:01:26;;;;;;;9.10;7.90;;;;;;;21.95;35.15;98783.16;221120;1274;22552;-71
2022/05/02 10:06:38;;;;;;;8.40;7.50;;;;;;;22.24;35.03;98781.66;222851;1273;23275;-72
2022/05/02 10:12:14;;;;;;;7.30;6.60;;;;;;;22.59;34.22;98772.53;221251;1274;22591;-72
2022/05/02 10:18:04;;;;;;;7.60;6.30;;;;;;;22.85;33.60;98768.11;221190;1274;22741;-70
2022/05/02 10:23:34;;;;;;;8.10;7.20;;;;;;;22.91;33.22;98763.50;221058;1273;22655;-72
2022/05/02 10:28:57;;;;;;;7.40;6.70;;;;;;;22.96;32.86;98756.15;221158;1273;26364;-71
2022/05/02 10:34:02;;;;;;;7.50;6.00;;;;;;;23.24;32.70;98751.73;221463;1274;25613;-71
2022/05/02 10:39:33;;;;;;;6.30;5.30;;;;;;;23.49;31.44;98746.05;221777;1274;26321;-71
2022/05/02 10:44:56;;;;;;;6.10;5.50;;;;;;;23.52;29.90;98737.19;221003;1274;22546;-71
2022/05/02 10:50:19;;;;;;;8.40;6.60;;;;;;;23.55;30.16;98727.44;220963;1274;22583;-71
2022/05/02 10:55:26;;;;;;;7.60;6.30;;;;;;;23.44;29.74;98722.80;218784;1274;26539;-71
2022/05/02 11:00:33;;;;;;;9.30;6.80;;;;;;;23.31;30.38;98723.77;221873;1274;25441;-71
2022/05/02 11:06:02;;;;;;;8.80;7.20;;;;;;;23.18;30.14;98721.92;222292;1274;25508;-72
2022/05/02 11:11:07;;;;;;;7.90;6.80;;;;;;;22.71;29.82;98714.42;221247;1274;22579;-71
2022/05/02 11:16:26;;;;;;;7.40;6.40;;;;;;;22.51;30.39;98714.55;222306;1274;22554;-72
2022/05/02 11:22:16;;;;;;;8.20;7.30;;;;;;;22.45;30.29;98718.84;221965;1274;22709;-71
2022/05/02 11:27:27;;;;;;;6.50;5.70;;;;;;;22.40;30.30;98711.91;220650;1274;24250;-71
2022/05/02 11:33:03;;;;;;;9.10;6.50;;;;;;;22.39;30.45;98709.19;221344;1274;23979;-71
2022/05/02 11:38:23;;;;;;;7.50;6.80;;;;;;;22.68;30.66;98704.16;221728;1273;24344;-71
2022/05/02 11:43:57;;;;;;;7.70;7.00;;;;;;;23.13;30.36;98696.02;221428;1274;22559;-71
2022/05/02 11:49:37;;;;;;;7.30;6.50;;;;;;;23.20;29.89;98687.52;221288;1273;22583;-70
2022/05/02 11:54:42;;;;;;;7.40;6.70;;;;;;;23.00;29.85;98688.30;221297;1273;22787;-73
2022/05/02 12:00:11;;;;;;;7.00;6.40;;;;;;;22.96;29.47;98685.45;223115;1274;24346;-72
2022/05/02 12:05:26;;;;;;;8.20;6.60;;;;;;;23.10;29.56;98680.45;220790;1274;551634;-71
2022/05/02 12:10:39;;;;;;;7.30;6.60;;;;;;;23.36;29.36;98680.56;221589;1274;22745;-72
2022/05/02 12:16:01;;;;;;;7.70;6.80;;;;;;;23.47;28.90;98675.91;222761;1274;22683;-71
2022/05/02 12:21:05;;;;;;;7.50;6.80;;;;;;;23.41;29.16;98670.77;221905;1273;22952;-72
2022/05/02 12:26:20;;;;;;;8.80;8.00;;;;;;;23.47;28.52;98661.30;224388;1274;22976;-72
2022/05/02 12:31:29;;;;;;;8.50;7.60;;;;;;;23.45;28.64;98658.40;221315;1274;22607;-72
2022/05/02 12:36:52;;;;;;;8.90;7.80;;;;;;;23.64;28.77;98644.72;221308;1274;22624;-70
2022/05/02 12:42:23;;;;;;;8.30;7.20;;;;;;;24.08;28.88;98639.09;221114;1273;23205;-73
2022/05/02 12:47:50;;;;;;;7.80;7.00;;;;;;;24.16;27.54;98635.85;221206;1273;22765;-72
2022/05/02 12:53:10;;;;;;;8.10;6.80;;;;;;;23.81;27.95;98639.69;221119;1273;22550;-71
2022/05/02 13:04:00;;;;;;;7.20;6.50;;;;;;;23.03;28.72;98643.63;223453;1273;25392;-71
2022/05/02 13:09:19;;;;;;;7.70;6.40;;;;;;;22.62;29.14;98635.91;221809;1274;23069;-70
2022/05/02 13:14:26;;;;;;;6.60;5.90;;;;;;;22.28;29.00;98632.14;219142;1273;25257;-71
2022/05/02 13:19:34;;;;;;;7.10;5.80;;;;;;;22.04;29.09;98631.42;225869;1272;27675;-70
2022/05/02 13:24:50;;;;;;;6.90;5.90;;;;;;;21.85;29.28;98629.75;221344;1274;22562;-70
2022/05/02 13:30:13;;;;;;;6.50;5.80;;;;;;;21.71;29.24;98623.71;221104;1275;24222;-70
2022/05/02 13:35:34;;;;;;;;;;;;;;;21.59;29.45;98624.22;221551;1274;25341;-71
2022/05/02 13:40:39;;;;;;;6.10;5.20;;;;;;;21.48;29.57;98622.39;221221;1274;22547;-70
2022/05/02 13:46:00;;;;;;;6.80;5.60;;;;;;;21.45;30.18;98618.15;221247;1274;22563;-70
2022/05/02 13:51:32;;;;;;;6.50;5.50;;;;;;;21.44;30.54;98616.34;221855;1273;23206;-71
2022/05/02 13:56:56;;;;;;;5.70;5.00;;;;;;;21.51;31.18;98616.38;221360;1274;22599;-71
2022/05/02 14:02:05;;;;;;;5.90;5.30;;;;;;;21.64;31.34;98612.39;221542;1273;25408;-71
2022/05/02 14:07:12;;;;;;;7.20;5.60;;;;;;;21.84;31.30;98611.03;220892;1274;22532;-71
2022/05/02 14:12:18;;;;;;;7.30;5.50;;;;;;;22.02;31.06;98609.49;221053;1274;22728;-71
2022/05/02 14:17:43;;;;;;;7.60;6.20;;;;;;;22.13;30.63;98604.96;220965;1273;25205;-71
2022/05/02 14:23:01;;;;;;;9.30;5.80;;;;;;;22.25;30.47;98605.05;220885;1273;22616;-71
2022/05/02 14:28:07;;;;;;;8.00;5.30;;;;;;;22.30;30.39;98607.27;221544;1274;25209;-71
2022/05/02 14:33:27;;;;;;;6.10;5.50;;;;;;;22.13;30.48;98605.27;221116;1274;24231;-71
2022/05/02 14:38:30;;;;;;;6.60;5.70;;;;;;;21.88;30.21;98601.27;220943;1274;22549;-71
2022/05/02 14:43:39;;;;;;;6.80;5.10;;;;;;;21.68;30.75;98596.08;221078;1274;25255;-71
2022/05/02 14:48:44;;;;;;;5.50;5.00;;;;;;;21.52;31.29;98591.94;220865;1274;25321;-71
2022/05/02 14:53:48;;;;;;;5.80;4.80;;;;;;;21.38;31.12;98587.83;221050;1274;22551;-72
2022/05/02 14:59:00;;;;;;;6.40;5.80;;;;;;;21.32;31.54;98586.41;221093;1273;25396;-71
2022/05/02 15:04:05;;;;;;;8.80;5.70;;;;;;;21.33;31.95;98580.50;221484;1273;24368;-72
2022/05/02 15:15:29;;;;;;;5.20;4.70;;;;;;;21.92;31.83;98575.55;220993;1273;22747;-71
2022/05/02 15:20:43;;;;;;;19.10;16.90;;;;;;;22.10;30.90;98574.30;220887;1274;22567;-72
2022/05/02 15:25:54;;;;;;;9.90;6.90;;;;;;;22.08;31.14;98572.48;222067;1274;22540;-71
2022/05/02 15:36:50;;;;;;;6.60;5.40;;;;;;;21.98;31.18;98568.84;220663;1274;24316;-71
2022/05/02 15:41:54;;;;;;;6.30;5.60;;;;;;;21.88;31.56;98567.93;220610;1275;22970;-71
2022/05/02 15:46:56;;;;;;;6.30;5.70;;;;;;;21.81;31.30;98566.05;220780;1275;22560;-71
2022/05/02 15:52:08;;;;;;;5.70;4.80;;;;;;;21.66;31.16;98559.38;220760;1276;22591;-70
2022/05/02 15:57:17;;;;;;;5.30;4.50;;;;;;;21.48;30.97;98555.59;220718;1274;24230;-71
2022/05/02 16:02:24;;;;;;;5.10;4.60;;;;;;;21.37;30.99;98550.06;220651;1274;22557;-72
2022/05/02 16:13:19;;;;;;;4.90;4.50;;;;;;;21.18;31.66;98546.25;220638;1274;22561;-70
2022/05/02 16:18:28;;;;;;;5.10;4.60;;;;;;;21.01;32.11;98541.86;221709;1275;22581;-71
2022/05/02 16:23:32;;;;;;;4.80;4.20;;;;;;;20.81;32.10;98541.91;220673;1274;25192;-71
2022/05/02 16:28:35;;;;;;;4.50;4.10;;;;;;;20.67;32.20;98535.97;220727;1276;24331;-70
2022/05/02 16:33:37;;;;;;;5.40;4.60;;;;;;;20.65;32.63;98533.29;220549;1274;24431;-71
2022/05/02 16:38:44;;;;;;;6.20;4.50;;;;;;;20.71;32.68;98533.65;220680;1276;22586;-70
2022/05/02 16:43:52;;;;;;;8.70;4.70;;;;;;;20.75;32.87;98534.27;221146;1276;22642;-71
2022/05/02 16:48:57;;;;;;;6.20;4.80;;;;;;;20.71;32.93;98534.51;220588;1276;24228;-71
2022/05/02 16:54:02;;;;;;;4.40;4.00;;;;;;;20.56;33.30;98536.47;221248;1274;25412;-71
2022/05/02 16:59:06;;;;;;;5.30;4.70;;;;;;;20.31;33.21;98538.86;221661;1276;25431;-70
2022/05/02 17:04:10;;;;;;;5.80;4.50;;;;;;;20.05;33.54;98541.16;220663;1276;25370;-71
2022/05/02 17:09:16;;;;;;;4.90;4.40;;;;;;;19.82;33.80;98539.44;220666;1276;22529;-72
2022/05/02 17:14:21;;;;;;;7.60;4.90;;;;;;;19.64;34.24;98536.14;221016;1275;24454;-69
2022/05/02 17:19:28;;;;;;;7.60;5.20;;;;;;;19.45;34.37;98537.28;220600;1276;22766;-71
2022/05/02 17:24:49;;;;;;;6.60;4.60;;;;;;;19.27;33.91;98538.10;220946;1276;22626;-71
2022/05/02 17:29:55;;;;;;;6.50;4.00;;;;;;;19.06;33.98;98541.58;220237;1276;24323;-71
2022/05/02 17:34:59;;;;;;;7.40;4.70;;;;;;;18.85;33.90;98541.42;221123;1273;22571;-71
2022/05/02 17:40:20;;;;;;;5.90;4.80;;;;;;;18.64;34.16;98541.17;221928;1273;22660;-72
2022/05/02 17:45:38;;;;;;;10.70;5.20;;;;;;;18.40;34.32;98541.86;220968;1273;22561;-71
2022/05/02 17:50:42;;;;;;;7.40;6.10;;;;;;;18.14;34.70;98543.15;220942;1273;26390;-72
2022/05/02 17:55:51;;;;;;;7.00;5.50;;;;;;;17.88;35.00;98544.73;220548;1273;25135;-72
2022/05/02 18:01:06;;;;;;;8.30;4.90;;;;;;;17.61;35.31;98547.11;220699;1277;22800;-72
2022/05/02 18:06:22;;;;;;;8.50;6.00;;;;;;;17.34;35.63;98548.19;221085;1275;22654;-71
2022/05/02 18:17:54;;;;;;;10.40;8.20;;;;;;;16.65;37.14;98549.17;220752;1275;23186;-72
2022/05/02 18:23:05;;;;;;;10.50;6.90;;;;;;;16.28;37.85;98555.00;220723;1277;22792;-72
2022/05/02 18:28:29;;;;;;;18.70;8.70;;;;;;;16.00;38.46;98562.94;221065;1277;22617;-71
2022/05/02 18:33:53;;;;;;;20.80;9.90;;;;;;;15.70;38.90;98565.42;221124;1274;22715;-72
2022/05/02 18:39:06;;;;;;;24.70;13.10;;;;;;;15.41;39.49;98565.63;221000;1273;22606;-71
2022/05/02 18:44:13;;;;;;;16.70;8.90;;;;;;;15.22;39.93;98575.27;221319;1273;22571;-71
2022/05/02 18:54:54;;;;;;;12.70;6.90;;;;;;;14.99;40.60;98582.52;221075;1273;22577;-72
2022/05/02 19:00:01;;;;;;;9.40;6.40;;;;;;;14.98;40.96;98582.40;221538;1273;24409;-71
2022/05/02 19:05:05;;;;;;;10.40;5.70;;;;;;;15.00;41.15;98586.59;220936;1274;22590;-71
2022/05/02 19:10:28;;;;;;;8.50;6.50;;;;;;;15.05;41.25;98587.70;220579;1276;25489;-71
2022/05/02 19:15:31;;;;;;;9.20;6.80;;;;;;;15.08;41.55;98586.50;220739;1277;22537;-71
2022/05/02 19:21:01;;;;;;;11.30;7.00;;;;;;;15.07;42.01;98584.21;221869;1274;24236;-71
2022/05/02 19:26:08;;;;;;;9.40;7.20;;;;;;;15.02;42.03;98590.52;221223;1274;24227;-71
2022/05/02 19:31:24;;;;;;;13.50;9.50;;;;;;;15.03;42.22;98590.92;221310;1274;25351;-72
2022/05/02 19:42:03;;;;;;;15.60;9.60;;;;;;;15.00;42.93;98588.02;220990;1274;23059;-71
2022/05/02 19:47:16;;;;;;;18.40;10.30;;;;;;;14.97;43.32;98589.26;221194;1274;24239;-72
2022/05/02 19:52:23;;;;;;;15.10;10.00;;;;;;;14.91;43.48;98587.96;220798;1274;22557;-72
2022/05/02 19:57:26;;;;;;;15.10;10.90;;;;;;;14.85;43.58;98590.34;220804;1276;22698;-74
2022/05/02 20:02:28;;;;;;;16.50;9.80;;;;;;;14.78;43.84;98586.41;220581;1277;22553;-73
2022/05/02 20:07:31;;;;;;;11.70;8.70;;;;;;;14.70;44.20;98586.36;220659;1277;25414;-72
2022/05/02 20:12:33;;;;;;;14.90;8.90;;;;;;;14.58;44.46;98585.16;220617;1276;22544;-72
2022/05/02 20:17:35;;;;;;;12.30;9.10;;;;;;;14.45;44.58;98585.52;220857;1276;25297;-72
2022/05/02 20:22:37;;;;;;;9.90;8.40;;;;;;;14.31;45.00;98583.81;221059;1274;22540;-71
2022/05/02 20:27:43;;;;;;;15.20;11.70;;;;;;;14.16;45.29;98585.64;220914;1276;22576;-72
2022/05/02 20:38:07;;;;;;;13.20;9.10;;;;;;;13.94;46.17;98590.64;221152;1274;22583;-71
2022/05/02 20:43:23;;;;;;;15.20;10.10;;;;;;;13.84;46.43;98591.36;221029;1274;25191;-71
2022/05/02 20:48:28;;;;;;;13.60;11.10;;;;;;;13.74;46.76;98584.58;221116;1274;22630;-71
2022/05/02 20:53:30;;;;;;;13.20;10.70;;;;;;;13.62;46.75;98578.67;221145;1274;22663;-69
2022/05/02 20:58:34;;;;;;;18.30;13.30;;;;;;;13.55;47.01;98580.64;221097;1274;25216;-70
2022/05/02 21:03:39;;;;;;;24.40;16.70;;;;;;;13.47;47.35;98579.96;220864;1277;22765;-70
2022/05/02 21:08:51;;;;;;;15.90;12.60;;;;;;;13.37;47.98;98578.55;219498;1275;22529;-71
2022/05/02 21:14:03;;;;;;;35.60;22.50;;;;;;;13.28;48.10;98575.05;220986;1275;22525;-71
2022/05/02 21:19:24;;;;;;;44.20;26.80;;;;;;;13.21;49.24;98571.60;220877;1279;22555;-71
2022/05/02 21:24:54;;;;;;;37.20;24.30;;;;;;;13.11;49.35;98565.36;220720;1276;22589;-71
2022/05/02 21:30:05;;;;;;;30.50;20.10;;;;;;;13.07;49.71;98560.95;220777;1276;22745;-71
2022/05/02 21:35:16;;;;;;;29.20;18.70;;;;;;;13.06;49.72;98562.47;220782;1275;24274;-71
2022/05/02 21:40:19;;;;;;;24.90;18.10;;;;;;;13.07;49.36;98562.57;220900;1274;24899;-71
2022/05/02 21:45:32;;;;;;;20.30;15.40;;;;;;;13.09;49.12;98561.65;220555;1276;22792;-71
2022/05/02 21:50:37;;;;;;;26.20;17.10;;;;;;;13.11;49.21;98554.44;220896;1275;22544;-71
2022/05/02 21:55:57;;;;;;;22.00;15.50;;;;;;;13.10;49.42;98552.50;220887;1276;22563;-70
2022/05/02 22:01:00;;;;;;;21.00;15.60;;;;;;;13.10;49.48;98554.50;220843;1277;22546;-70
2022/05/02 22:06:03;;;;;;;20.10;15.10;;;;;;;13.11;49.43;98552.29;220762;1276;24265;-70
2022/05/02 22:11:05;;;;;;;23.80;17.10;;;;;;;13.11;49.56;98548.56;220875;1276;22568;-71
2022/05/02 22:16:10;;;;;;;27.80;20.50;;;;;;;13.10;49.91;98549.67;220937;1275;22972;-70
2022/05/02 22:21:15;;;;;;;33.40;20.90;;;;;;;13.04;50.58;98550.27;220904;1277;22608;-71
2022/05/02 22:26:17;;;;;;;24.60;17.70;;;;;;;12.94;50.91;98548.17;220935;1275;22578;-71
2022/05/02 22:31:23;;;;;;;23.30;16.30;;;;;;;12.86;50.93;98549.16;220983;1275;26458;-72
2022/05/02 22:36:25;;;;;;;29.00;20.10;;;;;;;12.80;51.04;98543.09;220948;1274;22562;-71
2022/05/02 22:41:27;;;;;;;30.20;20.30;;;;;;;12.70;51.89;98541.13;220957;1274;22601;-71
2022/05/02 22:46:29;;;;;;;30.20;19.50;;;;;;;12.60;52.13;98538.39;220885;1274;22575;-71
2022/05/02 22:51:32;;;;;;;25.20;18.00;;;;;;;12.54;52.16;98539.08;221115;1274;22624;-69
2022/05/02 22:56:35;;;;;;;36.10;26.30;;;;;;;12.53;52.06;98539.86;221269;1274;22582;-71
2022/05/02 23:01:55;;;;;;;27.20;19.50;;;;;;;12.54;52.11;98539.55;220825;1274;22548;-71
2022/05/02 23:07:11;;;;;;;25.60;19.30;;;;;;;12.54;51.97;98537.15;221588;1274;22587;-72
2022/05/02 23:12:16;;;;;;;25.10;18.70;;;;;;;12.52;51.99;98532.98;220451;1277;22636;-70
2022/05/02 23:17:23;;;;;;;21.50;16.60;;;;;;;12.48;52.05;98532.87;221100;1275;22574;-70
2022/05/02 23:22:30;;;;;;;23.60;17.50;;;;;;;12.40;52.25;98529.91;220952;1274;22582;-71
2022/05/02 23:27:40;;;;;;;24.90;18.20;;;;;;;12.26;52.38;98525.02;221492;1275;22687;-71
2022/05/02 23:32:55;;;;;;;25.80;18.80;;;;;;;12.09;53.10;98523.20;221872;1277;22545;-71
2022/05/02 23:38:35;;;;;;;22.90;17.50;;;;;;;11.95;53.24;98518.58;221635;1276;25318;-71
2022/05/02 23:44:05;;;;;;;28.40;20.70;;;;;;;11.83;53.74;98521.77;220486;1277;22565;-71
2022/05/02 23:49:20;;;;;;;27.10;20.30;;;;;;;11.67;54.33;98516.55;221865;1274;22580;-71
2022/05/02 23:54:51;;;;;;;35.50;24.20;;;;;;;11.55;54.74;98513.58;221098;1274;24210;-70
